createdAt,value
2019-05-30T00:00:23.720Z,12.23
2019-05-30T00:05:28.565Z,13.17
2019-05-30T00:10:33.205Z,13.00
2019-05-30T00:15:38.127Z,13.13
2019-05-30T00:20:44.484Z,13.80
2019-05-30T00:25:49.280Z,13.33
2019-05-30T00:30:53.960Z,13.43
2019-05-30T00:35:59.748Z,15.70
2019-05-30T00:41:04.468Z,15.20
2019-05-30T00:46:09.283Z,15.40
2019-05-30T00:51:13.842Z,16.27
2019-05-30T00:56:18.463Z,18.20
2019-05-30T01:01:23.058Z,18.37
2019-05-30T01:06:27.948Z,17.00
2019-05-30T01:11:32.590Z,16.67
2019-05-30T01:16:37.128Z,14.83
2019-05-30T01:21:41.873Z,15.47
2019-05-30T01:26:46.614Z,15.97
2019-05-30T01:31:51.358Z,15.07
2019-05-30T01:36:55.998Z,15.43
2019-05-30T01:42:01.741Z,15.83
2019-05-30T01:47:06.616Z,14.37
2019-05-30T01:52:11.971Z,14.53
2019-05-30T01:57:17.638Z,15.23
2019-05-30T02:02:22.279Z,16.00
2019-05-30T02:07:27.038Z,16.17
2019-05-30T02:12:31.765Z,15.03
2019-05-30T02:17:36.512Z,11.00
2019-05-30T02:22:41.354Z,10.97
2019-05-30T02:27:46.099Z,11.83
2019-05-30T02:32:50.735Z,11.37
2019-05-30T02:37:55.486Z,10.47
2019-05-30T02:43:01.269Z,10.23
2019-05-30T02:48:07.384Z,10.87
2019-05-30T02:53:13.027Z,12.57
2019-05-30T02:58:18.144Z,12.57
2019-05-30T03:03:22.892Z,12.70
2019-05-30T03:08:27.535Z,13.30
2019-05-30T03:13:33.299Z,14.00
2019-05-30T03:18:38.043Z,15.10
2019-05-30T03:23:42.887Z,14.83
2019-05-30T03:28:47.757Z,14.23
2019-05-30T03:33:52.479Z,13.40
2019-05-30T03:38:58.759Z,12.47
2019-05-30T03:44:04.055Z,13.83
2019-05-30T03:49:14.944Z,14.43
2019-05-30T03:54:19.034Z,14.30
2019-05-30T03:59:27.059Z,13.53
2019-05-30T04:04:34.013Z,14.33
2019-05-30T04:09:38.801Z,15.03
2019-05-30T04:14:43.641Z,15.57
2019-05-30T04:19:48.232Z,16.17
2019-05-30T04:24:52.937Z,13.60
2019-05-30T04:29:58.032Z,14.23
2019-05-30T04:35:03.102Z,12.40
2019-05-30T04:40:11.074Z,12.23
2019-05-30T04:45:17.942Z,13.33
2019-05-30T04:50:23.094Z,14.93
2019-05-30T04:55:27.834Z,14.90
2019-05-30T05:00:32.580Z,15.33
2019-05-30T05:05:37.332Z,17.50
2019-05-30T05:10:42.068Z,14.93
2019-05-30T05:15:47.124Z,15.07
2019-05-30T05:20:51.859Z,13.87
2019-05-30T05:26:01.049Z,13.30
2019-05-30T05:31:02.784Z,14.27
2019-05-30T05:36:07.528Z,13.67
2019-05-30T05:41:12.272Z,14.50
2019-05-30T05:46:16.917Z,12.80
2019-05-30T05:51:22.712Z,12.93
2019-05-30T05:56:27.524Z,12.40
2019-05-30T06:01:32.167Z,12.50
2019-05-30T06:06:36.823Z,14.30
2019-05-30T06:11:41.886Z,12.60
2019-05-30T06:16:46.600Z,13.03
2019-05-30T06:21:54.241Z,12.53
2019-05-30T06:26:57.724Z,13.07
2019-05-30T06:32:02.678Z,13.00
2019-05-30T06:37:07.210Z,12.90
2019-05-30T06:42:12.859Z,12.50
2019-05-30T06:47:17.937Z,12.50
2019-05-30T06:52:22.870Z,13.07
2019-05-30T06:57:27.523Z,13.10
2019-05-30T07:02:32.600Z,11.43
2019-05-30T07:07:38.810Z,12.67
2019-05-30T07:12:43.590Z,12.17
2019-05-30T07:17:48.257Z,10.77
2019-05-30T07:22:52.804Z,10.53
2019-05-30T07:27:57.521Z,10.10
2019-05-30T07:33:02.371Z,5.60
2019-05-30T07:38:07.109Z,4.90
2019-05-30T07:43:11.754Z,4.47
2019-05-30T07:48:16.287Z,3.20
2019-05-30T07:53:20.866Z,2.23
2019-05-30T07:58:25.573Z,1.93
2019-05-30T08:03:30.482Z,2.00
2019-05-30T08:08:36.122Z,1.50
2019-05-30T08:13:40.923Z,1.70
2019-05-30T08:18:45.780Z,2.13
2019-05-30T08:23:50.442Z,2.00
2019-05-30T08:28:55.269Z,1.70
2019-05-30T08:34:00.014Z,2.00
2019-05-30T08:39:06.538Z,2.00
2019-05-30T08:44:11.343Z,1.63
2019-05-30T08:49:15.988Z,2.07
2019-05-30T08:54:20.732Z,1.63
2019-05-30T08:59:25.514Z,1.50
2019-05-30T09:04:30.224Z,1.50
2019-05-30T09:09:36.027Z,1.50
2019-05-30T09:14:41.190Z,1.60
2019-05-30T09:19:47.557Z,1.40
2019-05-30T09:24:52.265Z,1.37
2019-05-30T09:29:56.967Z,1.50
2019-05-30T09:35:01.657Z,2.20
2019-05-30T09:40:10.748Z,3.03
2019-05-30T09:45:15.958Z,2.60
2019-05-30T09:50:20.713Z,2.17
2019-05-30T09:55:25.336Z,2.10
2019-05-30T10:00:31.829Z,2.77
2019-05-30T10:05:36.571Z,2.17
2019-05-30T10:10:41.095Z,1.80
2019-05-30T10:15:46.855Z,1.93
2019-05-30T10:20:53.579Z,1.80
2019-05-30T10:25:58.210Z,1.83
2019-05-30T10:31:02.854Z,1.80
2019-05-30T10:36:07.394Z,1.80
2019-05-30T10:41:12.436Z,2.00
2019-05-30T10:46:17.786Z,1.57
2019-05-30T10:51:24.029Z,1.87
2019-05-30T10:56:29.308Z,1.85
2019-05-30T11:01:34.879Z,1.30
2019-05-30T11:07:10.547Z,1.60
2019-05-30T11:12:06.530Z,1.70
2019-05-30T11:17:13.239Z,1.77
2019-05-30T11:22:20.538Z,1.97
2019-05-30T11:27:26.545Z,1.43
2019-05-30T11:32:31.885Z,1.50
2019-05-30T11:37:37.623Z,1.90
2019-05-30T11:42:43.234Z,2.00
2019-05-30T11:47:49.551Z,2.30
2019-05-30T11:52:55.792Z,1.60
2019-05-30T11:58:01.468Z,1.50
2019-05-30T12:03:06.940Z,1.73
2019-05-30T12:08:12.178Z,2.23
2019-05-30T12:13:17.238Z,1.90
2019-05-30T12:18:22.272Z,2.47
2019-05-30T12:23:27.466Z,14.83
2019-05-30T12:28:35.419Z,3.73
2019-05-30T12:33:40.724Z,2.97
2019-05-30T12:38:46.241Z,1.80
2019-05-30T12:43:52.980Z,1.60
2019-05-30T12:48:59.424Z,1.63
2019-05-30T12:54:05.227Z,2.00
2019-05-30T12:59:11.286Z,1.90
2019-05-30T13:04:16.729Z,1.60
2019-05-30T13:09:22.127Z,1.73
2019-05-30T13:14:28.055Z,2.20
2019-05-30T13:19:33.719Z,2.30
2019-05-30T13:24:39.077Z,1.90
2019-05-30T13:29:44.505Z,2.30
2019-05-30T13:34:50.525Z,2.10
2019-05-30T13:39:55.573Z,2.00
2019-05-30T13:45:02.129Z,1.97
2019-05-30T13:50:13.022Z,2.43
2019-05-30T13:55:16.402Z,2.20
2019-05-30T14:00:21.418Z,1.97
2019-05-30T14:05:26.870Z,2.80
2019-05-30T14:10:32.682Z,2.03
2019-05-30T14:15:38.509Z,1.97
2019-05-30T14:20:44.529Z,1.97
2019-05-30T14:25:49.836Z,2.17
2019-05-30T14:30:55.498Z,1.90
2019-05-30T14:36:04.417Z,2.07
2019-05-30T14:41:09.553Z,2.07
2019-05-30T14:46:14.753Z,2.63
2019-05-30T14:51:19.889Z,2.00
2019-05-30T14:56:25.672Z,2.13
2019-05-30T15:01:31.268Z,2.00
2019-05-30T15:06:37.289Z,2.20
2019-05-30T15:11:43.022Z,2.27
2019-05-30T15:16:48.118Z,2.20
2019-05-30T15:21:53.879Z,2.70
2019-05-30T15:27:01.010Z,2.80
2019-05-30T15:32:10.219Z,2.47
2019-05-30T15:37:16.896Z,1.97
2019-05-30T15:42:22.395Z,2.37
2019-05-30T15:47:27.930Z,2.37
2019-05-30T15:52:33.060Z,2.50
2019-05-30T15:57:40.177Z,2.10
2019-05-30T16:02:46.181Z,2.50
2019-05-30T16:07:51.765Z,2.60
2019-05-30T16:12:57.799Z,2.53
2019-05-30T16:18:03.919Z,2.30
2019-05-30T16:23:09.656Z,2.53
2019-05-30T16:28:15.762Z,2.57
2019-05-30T16:33:22.145Z,2.43
2019-05-30T16:38:28.751Z,2.67
2019-05-30T16:43:34.617Z,2.67
2019-05-30T16:48:42.567Z,2.53
2019-05-30T16:53:49.452Z,3.60
2019-05-30T16:58:55.182Z,3.00
2019-05-30T17:04:00.868Z,2.50
2019-05-30T17:09:07.161Z,2.70
2019-05-30T17:14:12.231Z,2.37
2019-05-30T17:19:18.230Z,2.53
2019-05-30T17:24:25.220Z,2.47
2019-05-30T17:29:33.197Z,4.63
2019-05-30T17:34:39.604Z,3.57
2019-05-30T17:39:46.678Z,2.63
2019-05-30T17:44:53.591Z,3.00
2019-05-30T17:49:59.155Z,2.73
2019-05-30T17:55:06.601Z,3.00
2019-05-30T18:00:13.329Z,3.07
2019-05-30T18:05:20.351Z,2.80
2019-05-30T18:10:26.855Z,2.60
2019-05-30T18:15:32.518Z,2.60
2019-05-30T18:20:47.626Z,3.03
2019-05-30T18:25:44.940Z,3.00
2019-05-30T18:30:50.337Z,3.00
2019-05-30T18:35:56.973Z,3.03
2019-05-30T18:41:11.475Z,3.10
2019-05-30T18:46:10.016Z,3.20
2019-05-30T18:51:15.727Z,2.93
2019-05-30T18:56:21.841Z,2.97
2019-05-30T19:01:31.485Z,2.77
2019-05-30T19:06:38.005Z,2.77
2019-05-30T19:11:45.311Z,3.60
2019-05-30T19:16:51.022Z,3.53
2019-05-30T19:21:56.700Z,3.63
2019-05-30T19:27:02.331Z,4.30
2019-05-30T19:32:07.270Z,3.97
2019-05-30T19:37:13.303Z,3.43
2019-05-30T19:42:20.579Z,4.13
2019-05-30T19:47:28.539Z,3.60
2019-05-30T19:52:34.804Z,3.70
2019-05-30T19:57:40.374Z,3.80
2019-05-30T20:02:45.649Z,3.10
2019-05-30T20:07:51.064Z,3.73
2019-05-30T20:12:56.928Z,3.73
2019-05-30T20:18:03.080Z,3.83
2019-05-30T20:23:09.812Z,3.57
2019-05-30T20:28:15.196Z,4.40
2019-05-30T20:33:20.770Z,4.30
2019-05-30T20:38:26.781Z,4.33
2019-05-30T20:43:34.865Z,4.50
2019-05-30T20:48:42.772Z,4.50
2019-05-30T20:53:47.613Z,7.70
2019-05-30T20:58:55.111Z,6.53
2019-05-30T21:04:01.393Z,7.23
2019-05-30T21:09:08.231Z,7.60
2019-05-30T21:14:15.665Z,8.33
2019-05-30T21:19:23.701Z,8.83
2019-05-30T21:24:29.600Z,9.60
2019-05-30T21:29:36.780Z,9.30
2019-05-30T21:34:44.435Z,9.37
2019-05-30T21:39:50.834Z,9.43
2019-05-30T21:44:56.181Z,9.63
2019-05-30T21:50:01.404Z,9.70
2019-05-30T21:55:07.957Z,9.37
2019-05-30T22:00:14.628Z,9.90
2019-05-30T22:05:21.369Z,9.80
2019-05-30T22:10:28.281Z,9.87
2019-05-30T22:15:33.818Z,9.80
2019-05-30T22:20:38.555Z,9.40
2019-05-30T22:25:44.175Z,9.73
2019-05-30T22:30:50.667Z,9.87
2019-05-30T22:35:55.442Z,10.90
2019-05-30T22:41:00.538Z,10.17
2019-05-30T22:46:05.337Z,9.50
2019-05-30T22:51:09.983Z,10.13
2019-05-30T22:56:16.861Z,9.70
2019-05-30T23:01:21.518Z,10.13
2019-05-30T23:06:26.916Z,9.37
2019-05-30T23:11:32.438Z,9.63
2019-05-30T23:16:37.521Z,9.90
2019-05-30T23:21:42.333Z,9.73
2019-05-30T23:26:49.451Z,9.73
2019-05-30T23:31:54.484Z,9.90
2019-05-30T23:37:00.921Z,9.80
2019-05-30T23:42:05.716Z,9.57
2019-05-30T23:47:10.494Z,9.57
2019-05-30T23:52:15.301Z,9.00
2019-05-30T23:57:21.278Z,9.03
